[05 APR 20 | 1600-2100z] Flying North (EDDM<>EKCH)

Zu Eventkalender hinzugefügt: 05.04.20

Pascal Klamm

1451860
RG München - Event

Join Vatsim Germany and Vatsim Scandinavia as we are presenting a new series of Shuttles. Our first one will take you from München (EDDM), the capital of Bavaria to the capital of Denmark, København (EKCH). We are going to give our best to maintain full radar coverage during the whole event (1600z until 2100z).

------------------

Seid dabei, wenn Vatsim Germany zusammen mit Vatsim Scandinavia eine neue Serie an Shuttles beginnt. Unser erstes Shuttle wird euch von der bayerischen Hauptstadt München (EDDM) nach Kopenhagen (EKCH), der Hauptstadt von Dänemark, führen. Wir werden unser Bestes geben um über allen Sektoren genügend Radarabdeckung während des ganzen Events (1600z bis 2100z) zu gewährleisten.

------------------

Routes:
EDDM-EKCH: INPUD Y102 UPALA M726 LASGA DCT MAG DCT NOBRI M726 ROSOK Q296 MONAK
EKCH-EDDM: NEXEN T503 GIMRU DCT MIC DCT NEBUN DCT EMBOX DCT SODRO T703 LULAR T105 EXUSI

Charts/Briefing: EDDM; EKCH
 
Zuletzt bearbeitet von einem Moderator:

Michael Wellner

1024937
RG München - Event
Only 7 hours until the start of the event. The controllers are already cleaning their radar screens and the runways are already swept. So get your machines ready, study the charts and plan your route.
The weather would even be suitable for VFR and certainly offers a great view over the cities of Copenhagen and Munich on arrival and departure:

EDDMEKCH
METAREDDM 050820Z 09018KT CAVOK 10/M01 Q1025 NOSIGEKCH 050820Z AUTO 19007KT 160V220 9999 NCD 09/03 Q1032 NOSIG
TAFTAF EDDM 050500Z 0506/0612 07006KT CAVOK
BECMG 0506/0508 09012KT
BECMG 0517/0519 07004KT
TAF EKCH 050458Z 0506/0606 20006KT 9999 FEW030
BECMG 0511/0514 14015KT



Noch 7h bis zum Start des Events. Die Controller putzen schon ihre Radarschirme und die Pisten sind bereits gefegt. Also macht schon langsam Eure Maschinen startklar, studiert die Charts und plant eure Route.
Das Wetter wäre sogar VFR-tauglich und bietet sicher einen tollen Blick über die Städte von Kopenhagen und München beim An- und Abflug:

EDDMEKCH
METAREDDM 050820Z 09018KT CAVOK 10/M01 Q1025 NOSIGEKCH 050820Z AUTO 19007KT 160V220 9999 NCD 09/03 Q1032 NOSIG
TAFTAF EDDM 050500Z 0506/0612 07006KT CAVOK
BECMG 0506/0508 09012KT
BECMG 0517/0519 07004KT
TAF EKCH 050458Z 0506/0606 20006KT 9999 FEW030
BECMG 0511/0514 14015KT
--

_________________VATSim-Germany / RG München / Event-Department
 
Zuletzt bearbeitet:
Oben